sensor_id;sensor_type;location;lat;lon;timestamp;temperature;humidity
64987;DHT22;67903;52.108;9.358;2023-12-20T00:01:15;6.90;96.70
64987;DHT22;67903;52.108;9.358;2023-12-20T00:04:00;7.00;96.70
64987;DHT22;67903;52.108;9.358;2023-12-20T00:06:46;7.00;96.50
64987;DHT22;67903;52.108;9.358;2023-12-20T00:09:32;7.00;95.50
64987;DHT22;67903;52.108;9.358;2023-12-20T00:12:18;7.00;95.70
64987;DHT22;67903;52.108;9.358;2023-12-20T00:15:04;7.00;95.50
64987;DHT22;67903;52.108;9.358;2023-12-20T00:17:50;7.00;94.90
64987;DHT22;67903;52.108;9.358;2023-12-20T00:20:36;7.00;94.90
64987;DHT22;67903;52.108;9.358;2023-12-20T00:23:22;7.00;95.30
64987;DHT22;67903;52.108;9.358;2023-12-20T00:26:08;6.90;94.00
64987;DHT22;67903;52.108;9.358;2023-12-20T00:28:54;6.90;93.20
64987;DHT22;67903;52.108;9.358;2023-12-20T00:31:40;6.80;93.30
64987;DHT22;67903;52.108;9.358;2023-12-20T00:34:25;6.80;93.20
64987;DHT22;67903;52.108;9.358;2023-12-20T00:37:11;6.70;93.00
64987;DHT22;67903;52.108;9.358;2023-12-20T00:39:57;6.60;93.60
64987;DHT22;67903;52.108;9.358;2023-12-20T00:42:43;6.70;93.70
64987;DHT22;67903;52.108;9.358;2023-12-20T00:45:29;6.60;94.90
64987;DHT22;67903;52.108;9.358;2023-12-20T00:48:14;6.50;95.70
64987;DHT22;67903;52.108;9.358;2023-12-20T00:51:00;6.50;96.30
64987;DHT22;67903;52.108;9.358;2023-12-20T00:53:46;6.50;96.40
64987;DHT22;67903;52.108;9.358;2023-12-20T00:56:35;6.40;96.70
64987;DHT22;67903;52.108;9.358;2023-12-20T00:59:21;6.40;96.60
64987;DHT22;67903;52.108;9.358;2023-12-20T01:02:06;6.40;97.00
64987;DHT22;67903;52.108;9.358;2023-12-20T01:04:52;6.30;97.20
64987;DHT22;67903;52.108;9.358;2023-12-20T01:07:38;6.30;94.80
64987;DHT22;67903;52.108;9.358;2023-12-20T01:10:23;6.40;92.80
64987;DHT22;67903;52.108;9.358;2023-12-20T01:13:09;6.30;92.20
64987;DHT22;67903;52.108;9.358;2023-12-20T01:15:54;6.20;92.20
64987;DHT22;67903;52.108;9.358;2023-12-20T01:18:41;6.10;92.60
64987;DHT22;67903;52.108;9.358;2023-12-20T01:21:26;6.10;92.20
64987;DHT22;67903;52.108;9.358;2023-12-20T01:24:11;6.10;91.50
64987;DHT22;67903;52.108;9.358;2023-12-20T01:26:57;6.10;91.50
64987;DHT22;67903;52.108;9.358;2023-12-20T01:29:43;6.20;89.40
64987;DHT22;67903;52.108;9.358;2023-12-20T01:32:28;6.10;89.70
64987;DHT22;67903;52.108;9.358;2023-12-20T01:35:14;6.10;89.60
64987;DHT22;67903;52.108;9.358;2023-12-20T01:38:00;6.20;89.40
64987;DHT22;67903;52.108;9.358;2023-12-20T01:40:45;6.20;88.90
64987;DHT22;67903;52.108;9.358;2023-12-20T01:43:31;6.20;88.20
64987;DHT22;67903;52.108;9.358;2023-12-20T01:46:31;6.20;88.20
64987;DHT22;67903;52.108;9.358;2023-12-20T01:49:17;6.20;87.40
64987;DHT22;67903;52.108;9.358;2023-12-20T01:52:03;6.20;88.20
64987;DHT22;67903;52.108;9.358;2023-12-20T01:54:49;6.20;88.00
64987;DHT22;67903;52.108;9.358;2023-12-20T01:57:34;6.20;88.40
64987;DHT22;67903;52.108;9.358;2023-12-20T02:00:21;6.20;87.70
64987;DHT22;67903;52.108;9.358;2023-12-20T02:03:09;6.20;88.20
64987;DHT22;67903;52.108;9.358;2023-12-20T02:05:54;6.10;88.70
64987;DHT22;67903;52.108;9.358;2023-12-20T02:08:40;6.10;90.10
64987;DHT22;67903;52.108;9.358;2023-12-20T02:11:26;6.20;88.50
64987;DHT22;67903;52.108;9.358;2023-12-20T02:14:11;6.20;88.40
64987;DHT22;67903;52.108;9.358;2023-12-20T02:16:57;6.30;85.70
64987;DHT22;67903;52.108;9.358;2023-12-20T02:19:43;6.20;86.60
64987;DHT22;67903;52.108;9.358;2023-12-20T02:22:29;6.10;87.10
64987;DHT22;67903;52.108;9.358;2023-12-20T02:25:15;6.10;86.70
64987;DHT22;67903;52.108;9.358;2023-12-20T02:28:01;6.20;85.40
64987;DHT22;67903;52.108;9.358;2023-12-20T02:30:46;6.20;84.70
64987;DHT22;67903;52.108;9.358;2023-12-20T02:33:31;6.20;84.40
64987;DHT22;67903;52.108;9.358;2023-12-20T02:36:17;6.10;85.70
64987;DHT22;67903;52.108;9.358;2023-12-20T02:39:02;6.00;86.00
64987;DHT22;67903;52.108;9.358;2023-12-20T02:41:49;6.00;86.30
64987;DHT22;67903;52.108;9.358;2023-12-20T02:44:34;6.00;86.40
64987;DHT22;67903;52.108;9.358;2023-12-20T02:47:20;5.90;86.60
64987;DHT22;67903;52.108;9.358;2023-12-20T02:50:06;6.00;85.50
64987;DHT22;67903;52.108;9.358;2023-12-20T02:52:51;6.00;85.40
64987;DHT22;67903;52.108;9.358;2023-12-20T02:55:37;6.00;83.20
64987;DHT22;67903;52.108;9.358;2023-12-20T02:58:22;6.00;83.10
64987;DHT22;67903;52.108;9.358;2023-12-20T03:01:08;6.00;82.80
64987;DHT22;67903;52.108;9.358;2023-12-20T03:03:54;5.90;83.30
64987;DHT22;67903;52.108;9.358;2023-12-20T03:06:39;5.80;83.80
64987;DHT22;67903;52.108;9.358;2023-12-20T03:09:24;5.80;84.30
64987;DHT22;67903;52.108;9.358;2023-12-20T03:12:10;5.80;84.20
64987;DHT22;67903;52.108;9.358;2023-12-20T03:14:56;5.80;84.30
64987;DHT22;67903;52.108;9.358;2023-12-20T03:17:41;5.80;84.60
64987;DHT22;67903;52.108;9.358;2023-12-20T03:20:27;5.80;85.20
64987;DHT22;67903;52.108;9.358;2023-12-20T03:23:13;5.80;85.20
64987;DHT22;67903;52.108;9.358;2023-12-20T03:25:59;5.70;85.70
64987;DHT22;67903;52.108;9.358;2023-12-20T03:28:45;5.60;86.00
64987;DHT22;67903;52.108;9.358;2023-12-20T03:31:30;5.60;86.30
64987;DHT22;67903;52.108;9.358;2023-12-20T03:34:16;5.60;86.00
64987;DHT22;67903;52.108;9.358;2023-12-20T03:37:01;5.60;86.30
64987;DHT22;67903;52.108;9.358;2023-12-20T03:39:47;5.60;86.30
64987;DHT22;67903;52.108;9.358;2023-12-20T03:42:32;5.50;86.40
64987;DHT22;67903;52.108;9.358;2023-12-20T03:45:18;5.60;86.30
64987;DHT22;67903;52.108;9.358;2023-12-20T03:48:04;5.60;86.40
64987;DHT22;67903;52.108;9.358;2023-12-20T03:50:50;5.60;86.80
64987;DHT22;67903;52.108;9.358;2023-12-20T03:53:35;5.60;86.70
64987;DHT22;67903;52.108;9.358;2023-12-20T03:56:21;5.60;86.30
64987;DHT22;67903;52.108;9.358;2023-12-20T03:59:06;5.70;86.40
64987;DHT22;67903;52.108;9.358;2023-12-20T04:01:52;5.70;85.90
64987;DHT22;67903;52.108;9.358;2023-12-20T04:04:37;5.70;86.30
64987;DHT22;67903;52.108;9.358;2023-12-20T04:07:23;5.70;85.70
64987;DHT22;67903;52.108;9.358;2023-12-20T04:10:09;5.70;85.70
64987;DHT22;67903;52.108;9.358;2023-12-20T04:12:54;5.70;85.60
64987;DHT22;67903;52.108;9.358;2023-12-20T04:15:40;5.70;85.70
64987;DHT22;67903;52.108;9.358;2023-12-20T04:18:25;5.60;86.00
64987;DHT22;67903;52.108;9.358;2023-12-20T04:21:11;5.70;85.20
64987;DHT22;67903;52.108;9.358;2023-12-20T04:23:57;5.80;84.70
64987;DHT22;67903;52.108;9.358;2023-12-20T04:26:42;5.70;84.30
64987;DHT22;67903;52.108;9.358;2023-12-20T04:29:28;5.80;84.60
64987;DHT22;67903;52.108;9.358;2023-12-20T04:32:13;5.80;84.20
64987;DHT22;67903;52.108;9.358;2023-12-20T04:34:59;5.80;84.50
64987;DHT22;67903;52.108;9.358;2023-12-20T04:37:44;5.90;84.00
64987;DHT22;67903;52.108;9.358;2023-12-20T04:40:30;5.90;83.90
64987;DHT22;67903;52.108;9.358;2023-12-20T04:43:16;5.80;84.10
64987;DHT22;67903;52.108;9.358;2023-12-20T04:46:01;5.80;84.00
64987;DHT22;67903;52.108;9.358;2023-12-20T04:48:46;5.80;84.40
64987;DHT22;67903;52.108;9.358;2023-12-20T04:51:35;5.80;84.10
64987;DHT22;67903;52.108;9.358;2023-12-20T04:54:21;5.80;83.70
64987;DHT22;67903;52.108;9.358;2023-12-20T04:57:07;5.80;83.70
64987;DHT22;67903;52.108;9.358;2023-12-20T04:59:52;5.80;84.00
64987;DHT22;67903;52.108;9.358;2023-12-20T05:02:38;5.80;83.40
64987;DHT22;67903;52.108;9.358;2023-12-20T05:05:24;5.80;83.50
64987;DHT22;67903;52.108;9.358;2023-12-20T05:08:09;5.80;83.40
64987;DHT22;67903;52.108;9.358;2023-12-20T05:10:55;5.80;83.90
64987;DHT22;67903;52.108;9.358;2023-12-20T05:13:40;5.80;84.10
64987;DHT22;67903;52.108;9.358;2023-12-20T05:16:34;5.80;83.80
64987;DHT22;67903;52.108;9.358;2023-12-20T05:19:19;5.80;85.00
64987;DHT22;67903;52.108;9.358;2023-12-20T05:22:05;5.80;84.00
64987;DHT22;67903;52.108;9.358;2023-12-20T05:24:50;5.80;84.40
64987;DHT22;67903;52.108;9.358;2023-12-20T05:27:36;5.80;84.00
64987;DHT22;67903;52.108;9.358;2023-12-20T05:30:22;5.80;84.40
64987;DHT22;67903;52.108;9.358;2023-12-20T05:33:07;5.80;84.00
64987;DHT22;67903;52.108;9.358;2023-12-20T05:35:53;5.90;83.00
64987;DHT22;67903;52.108;9.358;2023-12-20T05:38:39;5.90;83.30
64987;DHT22;67903;52.108;9.358;2023-12-20T05:41:24;5.90;83.10
64987;DHT22;67903;52.108;9.358;2023-12-20T05:44:09;5.90;83.90
64987;DHT22;67903;52.108;9.358;2023-12-20T05:46:55;5.90;83.30
64987;DHT22;67903;52.108;9.358;2023-12-20T05:49:41;5.90;83.60
64987;DHT22;67903;52.108;9.358;2023-12-20T05:52:27;5.90;83.70
64987;DHT22;67903;52.108;9.358;2023-12-20T05:55:12;5.90;83.60
64987;DHT22;67903;52.108;9.358;2023-12-20T05:57:58;5.90;83.10
64987;DHT22;67903;52.108;9.358;2023-12-20T06:00:46;5.90;83.30
64987;DHT22;67903;52.108;9.358;2023-12-20T06:03:31;5.90;83.60
64987;DHT22;67903;52.108;9.358;2023-12-20T06:06:17;5.90;83.40
64987;DHT22;67903;52.108;9.358;2023-12-20T06:09:03;5.90;83.30
64987;DHT22;67903;52.108;9.358;2023-12-20T06:11:49;5.90;83.70
64987;DHT22;67903;52.108;9.358;2023-12-20T06:14:35;5.90;84.00
64987;DHT22;67903;52.108;9.358;2023-12-20T06:17:20;5.90;83.70
64987;DHT22;67903;52.108;9.358;2023-12-20T06:20:07;5.90;83.40
64987;DHT22;67903;52.108;9.358;2023-12-20T06:22:54;5.80;84.20
64987;DHT22;67903;52.108;9.358;2023-12-20T06:25:40;5.80;83.70
64987;DHT22;67903;52.108;9.358;2023-12-20T06:28:26;5.80;83.90
64987;DHT22;67903;52.108;9.358;2023-12-20T06:31:11;5.80;83.60
64987;DHT22;67903;52.108;9.358;2023-12-20T06:33:57;5.80;84.10
64987;DHT22;67903;52.108;9.358;2023-12-20T06:36:45;5.80;83.80
64987;DHT22;67903;52.108;9.358;2023-12-20T06:39:30;5.80;84.10
64987;DHT22;67903;52.108;9.358;2023-12-20T06:42:16;5.70;84.10
64987;DHT22;67903;52.108;9.358;2023-12-20T06:45:01;5.70;84.60
64987;DHT22;67903;52.108;9.358;2023-12-20T06:47:47;5.70;83.90
64987;DHT22;67903;52.108;9.358;2023-12-20T06:50:33;5.80;83.90
64987;DHT22;67903;52.108;9.358;2023-12-20T06:53:18;5.80;83.90
64987;DHT22;67903;52.108;9.358;2023-12-20T06:56:04;5.80;83.30
64987;DHT22;67903;52.108;9.358;2023-12-20T06:58:49;5.80;84.00
64987;DHT22;67903;52.108;9.358;2023-12-20T07:01:35;5.80;82.80
64987;DHT22;67903;52.108;9.358;2023-12-20T07:04:21;5.80;83.00
64987;DHT22;67903;52.108;9.358;2023-12-20T07:07:07;5.80;83.10
64987;DHT22;67903;52.108;9.358;2023-12-20T07:09:53;5.80;82.80
64987;DHT22;67903;52.108;9.358;2023-12-20T07:12:39;5.80;83.20
64987;DHT22;67903;52.108;9.358;2023-12-20T07:15:24;5.90;82.60
64987;DHT22;67903;52.108;9.358;2023-12-20T07:18:10;5.80;82.80
64987;DHT22;67903;52.108;9.358;2023-12-20T07:20:55;5.80;83.20
64987;DHT22;67903;52.108;9.358;2023-12-20T07:23:41;5.80;83.10
64987;DHT22;67903;52.108;9.358;2023-12-20T07:26:26;5.80;83.40
64987;DHT22;67903;52.108;9.358;2023-12-20T07:29:12;5.70;83.80
64987;DHT22;67903;52.108;9.358;2023-12-20T07:31:57;5.80;83.60
64987;DHT22;67903;52.108;9.358;2023-12-20T07:34:43;5.80;83.80
64987;DHT22;67903;52.108;9.358;2023-12-20T07:37:29;5.70;84.00
64987;DHT22;67903;52.108;9.358;2023-12-20T07:40:14;5.70;84.10
64987;DHT22;67903;52.108;9.358;2023-12-20T07:43:02;5.70;85.70
64987;DHT22;67903;52.108;9.358;2023-12-20T07:45:48;5.70;86.00
64987;DHT22;67903;52.108;9.358;2023-12-20T07:48:34;5.60;86.60
64987;DHT22;67903;52.108;9.358;2023-12-20T07:51:20;5.70;86.00
64987;DHT22;67903;52.108;9.358;2023-12-20T07:54:06;5.70;86.00
64987;DHT22;67903;52.108;9.358;2023-12-20T07:56:53;5.70;85.60
64987;DHT22;67903;52.108;9.358;2023-12-20T07:59:38;5.70;85.30
64987;DHT22;67903;52.108;9.358;2023-12-20T08:02:24;5.70;85.60
64987;DHT22;67903;52.108;9.358;2023-12-20T08:05:09;5.70;85.00
64987;DHT22;67903;52.108;9.358;2023-12-20T08:07:55;5.80;84.00
64987;DHT22;67903;52.108;9.358;2023-12-20T08:10:40;5.80;84.00
64987;DHT22;67903;52.108;9.358;2023-12-20T08:13:26;5.90;83.50
64987;DHT22;67903;52.108;9.358;2023-12-20T08:16:12;5.90;84.00
64987;DHT22;67903;52.108;9.358;2023-12-20T08:18:59;5.80;84.20
64987;DHT22;67903;52.108;9.358;2023-12-20T08:21:44;5.80;85.70
64987;DHT22;67903;52.108;9.358;2023-12-20T08:24:30;5.70;85.70
64987;DHT22;67903;52.108;9.358;2023-12-20T08:27:15;5.80;85.90
64987;DHT22;67903;52.108;9.358;2023-12-20T08:30:01;5.70;86.60
64987;DHT22;67903;52.108;9.358;2023-12-20T08:32:46;5.70;86.40
64987;DHT22;67903;52.108;9.358;2023-12-20T08:35:32;5.80;86.20
64987;DHT22;67903;52.108;9.358;2023-12-20T08:38:17;5.80;85.50
64987;DHT22;67903;52.108;9.358;2023-12-20T08:41:03;5.80;85.50
64987;DHT22;67903;52.108;9.358;2023-12-20T08:43:50;5.90;85.30
64987;DHT22;67903;52.108;9.358;2023-12-20T08:46:36;5.90;85.40
64987;DHT22;67903;52.108;9.358;2023-12-20T08:49:21;6.00;84.50
64987;DHT22;67903;52.108;9.358;2023-12-20T08:52:07;6.00;84.10
64987;DHT22;67903;52.108;9.358;2023-12-20T08:54:53;6.00;83.80
64987;DHT22;67903;52.108;9.358;2023-12-20T08:57:39;6.00;84.10
64987;DHT22;67903;52.108;9.358;2023-12-20T09:00:24;6.00;85.00
64987;DHT22;67903;52.108;9.358;2023-12-20T09:03:12;6.00;86.00
64987;DHT22;67903;52.108;9.358;2023-12-20T09:05:58;6.00;85.50
64987;DHT22;67903;52.108;9.358;2023-12-20T09:08:43;6.00;84.20
64987;DHT22;67903;52.108;9.358;2023-12-20T09:11:29;6.00;84.00
64987;DHT22;67903;52.108;9.358;2023-12-20T09:14:15;6.10;83.40
64987;DHT22;67903;52.108;9.358;2023-12-20T09:17:01;6.00;83.80
64987;DHT22;67903;52.108;9.358;2023-12-20T09:19:46;6.00;83.50
64987;DHT22;67903;52.108;9.358;2023-12-20T09:22:32;6.00;84.30
64987;DHT22;67903;52.108;9.358;2023-12-20T09:25:17;6.00;84.60
64987;DHT22;67903;52.108;9.358;2023-12-20T09:28:03;6.10;83.30
64987;DHT22;67903;52.108;9.358;2023-12-20T09:30:48;6.10;83.70
64987;DHT22;67903;52.108;9.358;2023-12-20T09:33:34;6.10;83.10
64987;DHT22;67903;52.108;9.358;2023-12-20T09:36:20;6.10;82.80
64987;DHT22;67903;52.108;9.358;2023-12-20T09:39:06;6.20;82.80
64987;DHT22;67903;52.108;9.358;2023-12-20T09:42:05;6.10;83.40
64987;DHT22;67903;52.108;9.358;2023-12-20T09:44:51;6.00;86.60
64987;DHT22;67903;52.108;9.358;2023-12-20T09:47:36;6.00;86.60
64987;DHT22;67903;52.108;9.358;2023-12-20T09:50:22;5.90;87.50
64987;DHT22;67903;52.108;9.358;2023-12-20T09:53:10;5.90;87.60
64987;DHT22;67903;52.108;9.358;2023-12-20T09:55:58;5.90;87.60
64987;DHT22;67903;52.108;9.358;2023-12-20T09:58:45;5.90;87.00
64987;DHT22;67903;52.108;9.358;2023-12-20T10:01:31;6.00;86.90
64987;DHT22;67903;52.108;9.358;2023-12-20T10:04:17;6.00;86.30
64987;DHT22;67903;52.108;9.358;2023-12-20T10:07:05;6.00;87.20
64987;DHT22;67903;52.108;9.358;2023-12-20T10:09:54;6.00;86.40
64987;DHT22;67903;52.108;9.358;2023-12-20T10:12:39;6.00;86.60
64987;DHT22;67903;52.108;9.358;2023-12-20T10:15:25;6.10;86.40
64987;DHT22;67903;52.108;9.358;2023-12-20T10:18:12;6.10;85.90
64987;DHT22;67903;52.108;9.358;2023-12-20T10:20:58;6.10;86.60
64987;DHT22;67903;52.108;9.358;2023-12-20T10:23:43;6.30;85.10
64987;DHT22;67903;52.108;9.358;2023-12-20T10:26:29;6.30;84.90
64987;DHT22;67903;52.108;9.358;2023-12-20T10:29:15;6.30;85.50
64987;DHT22;67903;52.108;9.358;2023-12-20T10:32:23;6.20;86.30
64987;DHT22;67903;52.108;9.358;2023-12-20T10:35:07;6.20;86.20
64987;DHT22;67903;52.108;9.358;2023-12-20T10:37:56;6.30;86.10
64987;DHT22;67903;52.108;9.358;2023-12-20T10:40:42;6.30;85.80
64987;DHT22;67903;52.108;9.358;2023-12-20T10:43:30;6.30;87.40
64987;DHT22;67903;52.108;9.358;2023-12-20T10:46:19;6.30;87.70
64987;DHT22;67903;52.108;9.358;2023-12-20T10:49:05;6.20;88.90
64987;DHT22;67903;52.108;9.358;2023-12-20T10:51:54;6.20;88.80
64987;DHT22;67903;52.108;9.358;2023-12-20T10:54:44;6.20;88.90
64987;DHT22;67903;52.108;9.358;2023-12-20T10:57:30;6.20;90.00
64987;DHT22;67903;52.108;9.358;2023-12-20T11:00:16;6.20;90.30
64987;DHT22;67903;52.108;9.358;2023-12-20T11:03:04;6.10;90.40
64987;DHT22;67903;52.108;9.358;2023-12-20T11:06:00;6.10;89.80
64987;DHT22;67903;52.108;9.358;2023-12-20T11:08:55;6.20;90.20
64987;DHT22;67903;52.108;9.358;2023-12-20T11:12:10;6.20;89.20
64987;DHT22;67903;52.108;9.358;2023-12-20T11:14:58;6.20;88.60
64987;DHT22;67903;52.108;9.358;2023-12-20T11:17:55;6.20;88.20
64987;DHT22;67903;52.108;9.358;2023-12-20T11:20:44;6.20;88.80
64987;DHT22;67903;52.108;9.358;2023-12-20T11:23:32;6.20;88.60
64987;DHT22;67903;52.108;9.358;2023-12-20T11:26:26;6.30;88.40
64987;DHT22;67903;52.108;9.358;2023-12-20T11:29:35;6.40;86.80
64987;DHT22;67903;52.108;9.358;2023-12-20T11:37:59;6.40;86.10
64987;DHT22;67903;52.108;9.358;2023-12-20T11:40:44;6.50;86.40
64987;DHT22;67903;52.108;9.358;2023-12-20T11:46:17;6.50;85.10
64987;DHT22;67903;52.108;9.358;2023-12-20T11:49:02;6.50;84.70
64987;DHT22;67903;52.108;9.358;2023-12-20T11:51:48;6.60;83.70
64987;DHT22;67903;52.108;9.358;2023-12-20T11:54:34;6.60;83.00
64987;DHT22;67903;52.108;9.358;2023-12-20T11:57:19;6.60;82.50
64987;DHT22;67903;52.108;9.358;2023-12-20T12:00:06;6.60;83.00
64987;DHT22;67903;52.108;9.358;2023-12-20T12:02:58;6.70;82.60
64987;DHT22;67903;52.108;9.358;2023-12-20T12:05:47;6.70;83.40
64987;DHT22;67903;52.108;9.358;2023-12-20T12:08:35;6.60;83.10
64987;DHT22;67903;52.108;9.358;2023-12-20T12:11:22;6.50;84.60
64987;DHT22;67903;52.108;9.358;2023-12-20T12:14:07;6.60;83.60
64987;DHT22;67903;52.108;9.358;2023-12-20T12:16:53;6.60;83.90
64987;DHT22;67903;52.108;9.358;2023-12-20T12:19:43;6.60;83.70
64987;DHT22;67903;52.108;9.358;2023-12-20T12:22:29;6.70;83.30
64987;DHT22;67903;52.108;9.358;2023-12-20T12:25:16;6.60;84.10
64987;DHT22;67903;52.108;9.358;2023-12-20T12:28:01;6.60;84.70
64987;DHT22;67903;52.108;9.358;2023-12-20T12:30:59;6.50;87.50
64987;DHT22;67903;52.108;9.358;2023-12-20T12:33:45;6.60;85.40
64987;DHT22;67903;52.108;9.358;2023-12-20T12:36:31;6.50;85.40
64987;DHT22;67903;52.108;9.358;2023-12-20T12:39:18;6.40;88.50
64987;DHT22;67903;52.108;9.358;2023-12-20T12:42:03;5.50;93.20
64987;DHT22;67903;52.108;9.358;2023-12-20T12:44:49;4.60;99.90
64987;DHT22;67903;52.108;9.358;2023-12-20T12:47:35;4.40;99.90
64987;DHT22;67903;52.108;9.358;2023-12-20T12:50:20;4.30;99.90
64987;DHT22;67903;52.108;9.358;2023-12-20T12:53:07;4.20;99.90
64987;DHT22;67903;52.108;9.358;2023-12-20T12:55:53;4.10;99.90
64987;DHT22;67903;52.108;9.358;2023-12-20T12:58:39;4.10;99.90
64987;DHT22;67903;52.108;9.358;2023-12-20T13:01:25;4.10;99.90
64987;DHT22;67903;52.108;9.358;2023-12-20T13:04:10;4.10;99.90
64987;DHT22;67903;52.108;9.358;2023-12-20T13:06:57;4.10;99.90
64987;DHT22;67903;52.108;9.358;2023-12-20T13:09:42;4.20;99.90
64987;DHT22;67903;52.108;9.358;2023-12-20T13:12:28;4.20;99.90
64987;DHT22;67903;52.108;9.358;2023-12-20T13:15:14;4.20;99.90
64987;DHT22;67903;52.108;9.358;2023-12-20T13:17:59;4.30;99.90
64987;DHT22;67903;52.108;9.358;2023-12-20T13:20:46;4.30;99.90
64987;DHT22;67903;52.108;9.358;2023-12-20T13:23:31;4.40;99.90
64987;DHT22;67903;52.108;9.358;2023-12-20T13:26:17;4.50;99.90
64987;DHT22;67903;52.108;9.358;2023-12-20T13:29:02;4.70;99.90
64987;DHT22;67903;52.108;9.358;2023-12-20T13:31:49;4.90;99.90
64987;DHT22;67903;52.108;9.358;2023-12-20T13:34:35;4.90;99.90
64987;DHT22;67903;52.108;9.358;2023-12-20T13:37:21;5.00;99.90
64987;DHT22;67903;52.108;9.358;2023-12-20T13:40:07;5.00;98.50
64987;DHT22;67903;52.108;9.358;2023-12-20T13:42:53;4.80;99.30
64987;DHT22;67903;52.108;9.358;2023-12-20T13:45:40;4.90;97.90
64987;DHT22;67903;52.108;9.358;2023-12-20T13:48:25;4.80;99.30
64987;DHT22;67903;52.108;9.358;2023-12-20T13:51:11;5.00;96.70
64987;DHT22;67903;52.108;9.358;2023-12-20T13:53:56;5.10;96.80
64987;DHT22;67903;52.108;9.358;2023-12-20T13:56:42;5.10;95.30
64987;DHT22;67903;52.108;9.358;2023-12-20T13:59:46;5.30;91.10
64987;DHT22;67903;52.108;9.358;2023-12-20T14:02:31;5.20;93.70
64987;DHT22;67903;52.108;9.358;2023-12-20T14:05:17;5.30;93.90
64987;DHT22;67903;52.108;9.358;2023-12-20T14:08:04;5.30;91.40
64987;DHT22;67903;52.108;9.358;2023-12-20T14:10:50;5.30;91.90
64987;DHT22;67903;52.108;9.358;2023-12-20T14:13:35;5.50;85.60
64987;DHT22;67903;52.108;9.358;2023-12-20T14:16:20;5.40;89.90
64987;DHT22;67903;52.108;9.358;2023-12-20T14:19:06;5.50;84.80
64987;DHT22;67903;52.108;9.358;2023-12-20T14:21:53;5.50;84.50
64987;DHT22;67903;52.108;9.358;2023-12-20T14:24:39;5.50;84.40
64987;DHT22;67903;52.108;9.358;2023-12-20T14:27:24;5.50;84.40
64987;DHT22;67903;52.108;9.358;2023-12-20T14:30:13;5.60;81.30
64987;DHT22;67903;52.108;9.358;2023-12-20T14:33:00;5.70;83.00
64987;DHT22;67903;52.108;9.358;2023-12-20T14:35:45;5.60;81.60
64987;DHT22;67903;52.108;9.358;2023-12-20T14:38:31;5.50;83.30
64987;DHT22;67903;52.108;9.358;2023-12-20T14:41:17;5.60;82.50
64987;DHT22;67903;52.108;9.358;2023-12-20T14:44:05;5.60;83.80
64987;DHT22;67903;52.108;9.358;2023-12-20T14:46:50;5.60;84.70
64987;DHT22;67903;52.108;9.358;2023-12-20T14:49:36;5.60;83.60
64987;DHT22;67903;52.108;9.358;2023-12-20T14:52:23;5.70;83.30
64987;DHT22;67903;52.108;9.358;2023-12-20T14:55:08;5.60;83.40
64987;DHT22;67903;52.108;9.358;2023-12-20T14:57:54;5.60;82.80
64987;DHT22;67903;52.108;9.358;2023-12-20T15:00:40;5.70;81.50
64987;DHT22;67903;52.108;9.358;2023-12-20T15:03:25;5.70;81.10
64987;DHT22;67903;52.108;9.358;2023-12-20T15:06:11;5.70;82.10
64987;DHT22;67903;52.108;9.358;2023-12-20T15:08:57;5.70;81.90
64987;DHT22;67903;52.108;9.358;2023-12-20T15:11:43;5.60;83.20
64987;DHT22;67903;52.108;9.358;2023-12-20T15:14:28;5.60;82.20
64987;DHT22;67903;52.108;9.358;2023-12-20T15:17:14;5.60;81.90
64987;DHT22;67903;52.108;9.358;2023-12-20T15:19:59;5.60;82.90
64987;DHT22;67903;52.108;9.358;2023-12-20T15:22:45;5.60;81.30
64987;DHT22;67903;52.108;9.358;2023-12-20T15:25:31;5.60;82.60
64987;DHT22;67903;52.108;9.358;2023-12-20T15:28:17;5.60;85.40
64987;DHT22;67903;52.108;9.358;2023-12-20T15:31:04;5.50;84.50
64987;DHT22;67903;52.108;9.358;2023-12-20T15:33:50;5.50;86.40
64987;DHT22;67903;52.108;9.358;2023-12-20T15:36:36;5.50;84.60
64987;DHT22;67903;52.108;9.358;2023-12-20T15:39:21;5.50;85.40
64987;DHT22;67903;52.108;9.358;2023-12-20T15:42:07;5.50;85.90
64987;DHT22;67903;52.108;9.358;2023-12-20T15:44:52;5.50;85.70
64987;DHT22;67903;52.108;9.358;2023-12-20T15:47:37;5.50;86.00
64987;DHT22;67903;52.108;9.358;2023-12-20T15:50:23;5.50;85.70
64987;DHT22;67903;52.108;9.358;2023-12-20T15:53:09;5.50;85.90
64987;DHT22;67903;52.108;9.358;2023-12-20T15:55:55;5.50;88.90
64987;DHT22;67903;52.108;9.358;2023-12-20T15:58:40;5.50;87.70
64987;DHT22;67903;52.108;9.358;2023-12-20T16:01:26;5.40;88.30
64987;DHT22;67903;52.108;9.358;2023-12-20T16:04:12;5.30;88.80
64987;DHT22;67903;52.108;9.358;2023-12-20T16:06:57;5.40;90.10
64987;DHT22;67903;52.108;9.358;2023-12-20T16:09:42;5.30;91.80
64987;DHT22;67903;52.108;9.358;2023-12-20T16:12:28;5.00;97.30
64987;DHT22;67903;52.108;9.358;2023-12-20T16:15:14;5.00;98.20
64987;DHT22;67903;52.108;9.358;2023-12-20T16:18:00;5.00;96.00
64987;DHT22;67903;52.108;9.358;2023-12-20T16:20:45;5.00;97.00
64987;DHT22;67903;52.108;9.358;2023-12-20T16:23:31;5.10;95.30
64987;DHT22;67903;52.108;9.358;2023-12-20T16:26:17;5.10;95.60
64987;DHT22;67903;52.108;9.358;2023-12-20T16:29:02;5.10;95.30
64987;DHT22;67903;52.108;9.358;2023-12-20T16:31:47;5.10;95.10
64987;DHT22;67903;52.108;9.358;2023-12-20T16:34:33;5.10;95.50
64987;DHT22;67903;52.108;9.358;2023-12-20T16:37:18;5.00;96.50
64987;DHT22;67903;52.108;9.358;2023-12-20T16:40:05;5.00;96.80
64987;DHT22;67903;52.108;9.358;2023-12-20T16:42:52;5.20;94.80
64987;DHT22;67903;52.108;9.358;2023-12-20T16:45:38;5.30;94.90
64987;DHT22;67903;52.108;9.358;2023-12-20T16:48:23;5.30;94.10
64987;DHT22;67903;52.108;9.358;2023-12-20T16:51:09;5.30;94.50
64987;DHT22;67903;52.108;9.358;2023-12-20T16:53:54;5.30;94.30
64987;DHT22;67903;52.108;9.358;2023-12-20T16:56:40;5.30;94.50
64987;DHT22;67903;52.108;9.358;2023-12-20T16:59:25;5.30;95.10
64987;DHT22;67903;52.108;9.358;2023-12-20T17:02:11;5.20;96.80
64987;DHT22;67903;52.108;9.358;2023-12-20T17:04:56;5.10;96.00
64987;DHT22;67903;52.108;9.358;2023-12-20T17:07:42;5.30;95.50
64987;DHT22;67903;52.108;9.358;2023-12-20T17:10:28;5.40;93.60
64987;DHT22;67903;52.108;9.358;2023-12-20T17:13:13;5.40;93.60
64987;DHT22;67903;52.108;9.358;2023-12-20T17:15:59;5.40;94.10
64987;DHT22;67903;52.108;9.358;2023-12-20T17:18:45;5.40;93.70
64987;DHT22;67903;52.108;9.358;2023-12-20T17:21:34;5.30;94.40
64987;DHT22;67903;52.108;9.358;2023-12-20T17:24:21;5.20;97.00
64987;DHT22;67903;52.108;9.358;2023-12-20T17:27:10;5.20;97.30
64987;DHT22;67903;52.108;9.358;2023-12-20T17:29:56;5.30;96.50
64987;DHT22;67903;52.108;9.358;2023-12-20T17:32:41;5.30;96.70
64987;DHT22;67903;52.108;9.358;2023-12-20T17:35:34;5.30;97.30
64987;DHT22;67903;52.108;9.358;2023-12-20T17:38:20;5.40;96.50
64987;DHT22;67903;52.108;9.358;2023-12-20T17:41:06;5.50;95.60
64987;DHT22;67903;52.108;9.358;2023-12-20T17:43:52;5.40;95.80
64987;DHT22;67903;52.108;9.358;2023-12-20T17:46:37;5.50;95.40
64987;DHT22;67903;52.108;9.358;2023-12-20T17:49:23;5.50;94.70
64987;DHT22;67903;52.108;9.358;2023-12-20T17:52:13;5.60;94.40
64987;DHT22;67903;52.108;9.358;2023-12-20T17:54:59;5.70;93.10